createdAt,value
2018-10-11T00:01:48.895Z,100414.80
2018-10-11T00:04:17.079Z,100405.64
2018-10-11T00:06:45.183Z,100417.67
2018-10-11T00:09:13.805Z,100412.88
2018-10-11T00:11:41.878Z,100412.66
2018-10-11T00:14:09.966Z,100418.33
2018-10-11T00:16:38.462Z,100412.86
2018-10-11T00:19:06.546Z,100413.80
2018-10-11T00:21:34.621Z,100411.53
2018-10-11T00:24:02.706Z,100413.25
2018-10-11T00:26:30.794Z,100409.30
2018-10-11T00:28:58.883Z,100415.20
2018-10-11T00:31:26.964Z,100417.83
2018-10-11T00:33:55.053Z,100426.34
2018-10-11T00:36:23.267Z,100418.81
2018-10-11T00:38:51.383Z,100421.62
2018-10-11T00:41:19.519Z,100425.98
2018-10-11T00:43:47.607Z,100414.60
2018-10-11T00:46:15.679Z,100415.20
2018-10-11T00:48:50.207Z,100414.80
2018-10-11T00:51:18.300Z,100410.63
2018-10-11T00:53:46.394Z,100408.63
2018-10-11T00:56:14.482Z,100402.59
2018-10-11T00:58:42.619Z,100394.52
2018-10-11T01:01:10.709Z,100385.50
2018-10-11T01:03:38.979Z,100386.48
2018-10-11T01:06:07.372Z,100381.81
2018-10-11T01:08:35.507Z,100376.70
2018-10-11T01:11:03.612Z,100371.95
2018-10-11T01:13:31.764Z,100372.84
2018-10-11T01:15:59.892Z,100377.77
2018-10-11T01:18:27.993Z,100377.45
2018-10-11T01:20:56.115Z,100378.98
2018-10-11T01:23:24.235Z,100370.95
2018-10-11T01:25:52.340Z,100383.58
2018-10-11T01:28:20.462Z,100381.34
2018-10-11T01:30:53.921Z,100380.88
2018-10-11T01:33:21.988Z,100373.08
2018-10-11T01:35:50.076Z,100375.09
2018-10-11T01:38:18.151Z,100373.83
2018-10-11T01:40:46.297Z,100376.48
2018-10-11T01:43:14.387Z,100372.58
2018-10-11T01:45:42.458Z,100371.66
2018-10-11T01:48:10.572Z,100361.27
2018-10-11T01:50:38.689Z,100355.65
2018-10-11T01:53:06.772Z,100358.77
2018-10-11T01:55:34.915Z,100353.61
2018-10-11T01:58:03.033Z,100340.85
2018-10-11T02:00:31.112Z,100344.42
2018-10-11T02:02:59.780Z,100336.59
2018-10-11T02:05:28.559Z,100334.03
2018-10-11T02:07:57.665Z,100341.41
2018-10-11T02:10:26.785Z,100340.06
2018-10-11T02:12:55.746Z,100331.90
2018-10-11T02:15:23.952Z,100329.59
2018-10-11T02:17:52.039Z,100326.24
2018-10-11T02:20:20.115Z,100322.72
2018-10-11T02:22:48.204Z,100325.05
2018-10-11T02:25:16.294Z,100336.22
2018-10-11T02:27:44.391Z,100328.98
2018-10-11T02:30:13.087Z,100332.23
2018-10-11T02:32:41.631Z,100334.59
2018-10-11T02:35:10.108Z,100336.91
2018-10-11T02:37:38.252Z,100344.06
2018-10-11T02:40:06.334Z,100333.39
2018-10-11T02:42:34.424Z,100332.70
2018-10-11T02:45:02.511Z,100329.63
2018-10-11T02:47:30.606Z,100332.43
2018-10-11T02:49:58.693Z,100325.23
2018-10-11T02:52:26.947Z,100331.17
2018-10-11T02:54:55.080Z,100329.90
2018-10-11T02:57:34.412Z,100332.89
2018-10-11T03:00:04.592Z,100335.16
2018-10-11T03:02:33.348Z,100332.45
2018-10-11T03:05:01.568Z,100332.02
2018-10-11T03:07:30.010Z,100333.55
2018-10-11T03:09:58.272Z,100335.55
2018-10-11T03:12:26.442Z,100335.77
2018-10-11T03:14:54.541Z,100336.48
2018-10-11T03:17:22.633Z,100337.55
2018-10-11T03:19:50.756Z,100337.08
2018-10-11T03:22:18.849Z,100331.73
2018-10-11T03:24:46.937Z,100336.92
2018-10-11T03:27:15.024Z,100333.56
2018-10-11T03:29:43.091Z,100347.31
2018-10-11T03:32:11.234Z,100349.33
2018-10-11T03:34:39.316Z,100339.89
2018-10-11T03:37:07.411Z,100342.33
2018-10-11T03:39:35.487Z,100336.95
2018-10-11T03:42:03.610Z,100339.38
2018-10-11T03:44:31.682Z,100335.77
2018-10-11T03:46:59.788Z,100333.53
2018-10-11T03:49:27.884Z,100328.77
2018-10-11T03:51:56.049Z,100337.43
2018-10-11T03:54:24.210Z,100347.06
2018-10-11T03:56:52.723Z,100342.84
2018-10-11T03:59:20.827Z,100342.36
2018-10-11T04:01:48.928Z,100345.53
2018-10-11T04:04:17.016Z,100342.42
2018-10-11T04:06:45.135Z,100347.44
2018-10-11T04:09:13.242Z,100344.05
2018-10-11T04:11:41.355Z,100351.05
2018-10-11T04:14:09.438Z,100349.41
2018-10-11T04:16:37.517Z,100354.94
2018-10-11T04:19:06.220Z,100350.27
2018-10-11T04:21:34.360Z,100344.97
2018-10-11T04:24:02.459Z,100354.95
2018-10-11T04:26:30.565Z,100361.14
2018-10-11T04:28:58.661Z,100355.64
2018-10-11T04:31:26.804Z,100357.30
2018-10-11T04:33:54.956Z,100349.83
2018-10-11T04:36:23.063Z,100342.13
2018-10-11T04:38:51.155Z,100347.66
2018-10-11T04:41:19.329Z,100349.19
2018-10-11T04:43:47.426Z,100349.91
2018-10-11T04:46:15.507Z,100350.45
2018-10-11T04:48:43.583Z,100356.91
2018-10-11T04:51:11.672Z,100362.05
2018-10-11T04:53:39.847Z,100359.42
2018-10-11T04:56:07.846Z,100367.22
2018-10-11T04:58:35.979Z,100361.98
2018-10-11T05:01:04.055Z,100360.80
2018-10-11T05:03:32.181Z,100359.37
2018-10-11T05:06:00.464Z,100372.70
2018-10-11T05:08:28.604Z,100369.02
2018-10-11T05:10:56.683Z,100369.63
2018-10-11T05:13:34.807Z,100378.11
2018-10-11T05:16:02.919Z,100381.30
2018-10-11T05:18:31.068Z,100389.35
2018-10-11T05:20:59.156Z,100388.55
2018-10-11T05:23:27.293Z,100394.42
2018-10-11T05:25:55.464Z,100395.14
2018-10-11T05:28:23.510Z,100384.62
2018-10-11T05:30:51.667Z,100384.00
2018-10-11T05:33:19.781Z,100376.77
2018-10-11T05:35:47.900Z,100378.00
2018-10-11T05:38:16.080Z,100383.98
2018-10-11T05:40:44.106Z,100382.97
2018-10-11T05:43:13.088Z,100377.30
2018-10-11T05:45:42.559Z,100387.08
2018-10-11T05:48:10.675Z,100393.13
2018-10-11T05:50:39.342Z,100388.91
2018-10-11T05:53:07.472Z,100385.53
2018-10-11T05:55:35.572Z,100377.59
2018-10-11T05:58:03.663Z,100384.50
2018-10-11T06:00:31.780Z,100400.50
2018-10-11T06:03:02.242Z,100409.97
2018-10-11T06:05:31.559Z,100418.50
2018-10-11T06:08:00.921Z,100419.43
2018-10-11T06:10:31.349Z,100425.98
2018-10-11T06:12:59.500Z,100407.39
2018-10-11T06:15:27.679Z,100405.91
2018-10-11T06:17:55.825Z,100402.75
2018-10-11T06:20:23.909Z,100405.25
2018-10-11T06:22:52.031Z,100406.69
2018-10-11T06:25:20.136Z,100406.59
2018-10-11T06:27:48.226Z,100400.81
2018-10-11T06:30:16.348Z,100393.37
2018-10-11T06:32:44.953Z,100413.50
2018-10-11T06:35:13.414Z,100426.72
2018-10-11T06:37:41.572Z,100436.50
2018-10-11T06:40:09.695Z,100435.66
2018-10-11T06:42:37.965Z,100437.53
2018-10-11T06:45:07.975Z,100439.47
2018-10-11T06:47:37.096Z,100424.64
2018-10-11T06:50:06.302Z,100434.53
2018-10-11T06:52:34.303Z,100435.38
2018-10-11T06:55:02.829Z,100436.78
2018-10-11T06:57:30.983Z,100435.18
2018-10-11T06:59:59.133Z,100441.86
2018-10-11T07:02:27.203Z,100452.92
2018-10-11T07:04:55.311Z,100448.49
2018-10-11T07:07:23.491Z,100459.23
2018-10-11T07:09:52.168Z,100471.82
2018-10-11T07:12:20.303Z,100474.50
2018-10-11T07:14:48.415Z,100475.34
2018-10-11T07:17:16.531Z,100501.53
2018-10-11T07:19:44.672Z,100511.25
2018-10-11T07:22:12.746Z,100507.95
2018-10-11T07:24:41.040Z,100504.44
2018-10-11T07:27:09.163Z,100504.11
2018-10-11T07:29:37.388Z,100507.73
2018-10-11T07:32:05.821Z,100511.84
2018-10-11T07:34:33.988Z,100519.61
2018-10-11T07:37:02.005Z,100522.06
2018-10-11T07:39:36.311Z,100523.17
2018-10-11T07:42:04.707Z,100516.91
2018-10-11T07:44:32.783Z,100516.54
2018-10-11T07:47:00.901Z,100520.67
2018-10-11T07:49:29.849Z,100512.27
2018-10-11T07:51:57.964Z,100510.44
2018-10-11T07:54:32.988Z,100507.50
2018-10-11T07:57:01.512Z,100509.77
2018-10-11T07:59:29.786Z,100518.00
2018-10-11T08:01:57.912Z,100522.77
2018-10-11T08:04:26.087Z,100527.23
2018-10-11T08:06:54.284Z,100522.94
2018-10-11T08:09:22.391Z,100525.75
2018-10-11T08:11:50.572Z,100526.32
2018-10-11T08:14:18.665Z,100523.86
2018-10-11T08:16:47.538Z,100527.45
2018-10-11T08:19:15.652Z,100525.80
2018-10-11T08:21:43.655Z,100523.85
2018-10-11T08:24:11.726Z,100530.72
2018-10-11T08:26:39.794Z,100530.81
2018-10-11T08:29:07.929Z,100536.95
2018-10-11T08:31:36.091Z,100532.44
2018-10-11T08:34:04.128Z,100522.17
2018-10-11T08:36:32.232Z,100520.62
2018-10-11T08:39:00.352Z,100528.89
2018-10-11T08:41:28.435Z,100520.00
2018-10-11T08:43:56.541Z,100527.94
2018-10-11T08:46:24.608Z,100518.98
2018-10-11T08:48:52.701Z,100519.52
2018-10-11T08:51:20.798Z,100520.56
2018-10-11T08:53:49.020Z,100527.80
2018-10-11T08:56:17.613Z,100526.02
2018-10-11T08:58:45.916Z,100521.45
2018-10-11T09:01:18.386Z,100515.83
2018-10-11T09:03:46.636Z,100520.16
2018-10-11T09:06:14.593Z,100522.42
2018-10-11T09:08:42.678Z,100522.39
2018-10-11T09:11:10.785Z,100514.89
2018-10-11T09:13:38.888Z,100519.61
2018-10-11T09:16:07.031Z,100513.54
2018-10-11T09:18:35.136Z,100510.73
2018-10-11T09:21:03.248Z,100519.16
2018-10-11T09:23:31.319Z,100527.84
2018-10-11T09:25:59.393Z,100520.56
2018-10-11T09:28:27.465Z,100525.30
2018-10-11T09:30:55.619Z,100525.04
2018-10-11T09:33:23.706Z,100525.42
2018-10-11T09:35:51.798Z,100521.84
2018-10-11T09:38:19.882Z,100523.89
2018-10-11T09:40:48.142Z,100523.75
2018-10-11T09:43:16.235Z,100521.78
2018-10-11T09:45:44.351Z,100517.94
2018-10-11T09:48:12.444Z,100523.66
2018-10-11T09:50:40.524Z,100513.31
2018-10-11T09:53:08.616Z,100516.33
2018-10-11T09:55:36.711Z,100518.27
2018-10-11T09:58:04.811Z,100521.41
2018-10-11T10:00:33.231Z,100518.59
2018-10-11T10:03:01.300Z,100512.05
2018-10-11T10:05:29.389Z,100513.34
2018-10-11T10:07:57.466Z,100514.36
2018-10-11T10:10:25.552Z,100514.97
2018-10-11T10:12:53.663Z,100513.88
2018-10-11T10:15:21.724Z,100512.80
2018-10-11T10:17:49.791Z,100510.43
2018-10-11T10:20:17.893Z,100513.91
2018-10-11T10:22:45.960Z,100508.12
2018-10-11T10:25:14.089Z,100510.45
2018-10-11T10:27:42.175Z,100509.94
2018-10-11T10:30:15.676Z,100506.66
2018-10-11T10:32:43.807Z,100508.09
2018-10-11T10:35:11.912Z,100501.19
2018-10-11T10:37:39.999Z,100506.73
2018-10-11T10:40:08.099Z,100500.50
2018-10-11T10:42:36.202Z,100497.78
2018-10-11T10:45:04.295Z,100488.94
2018-10-11T10:47:32.390Z,100484.17
2018-10-11T10:50:00.483Z,100486.02
2018-10-11T10:52:28.579Z,100487.03
2018-10-11T10:54:56.715Z,100481.71
2018-10-11T10:57:24.801Z,100481.97
2018-10-11T10:59:52.879Z,100485.69
2018-10-11T11:02:20.972Z,100477.96
2018-10-11T11:04:49.037Z,100480.58
2018-10-11T11:07:17.175Z,100476.34
2018-10-11T11:09:45.229Z,100477.70
2018-10-11T11:12:13.311Z,100483.30
2018-10-11T11:14:41.406Z,100477.55
2018-10-11T11:17:09.504Z,100475.73
2018-10-11T11:19:37.583Z,100469.31
2018-10-11T11:22:05.684Z,100467.73
2018-10-11T11:24:33.827Z,100472.77
2018-10-11T11:27:01.900Z,100475.30
2018-10-11T11:29:30.223Z,100474.66
2018-10-11T11:31:58.323Z,100467.93
2018-10-11T11:34:26.489Z,100465.13
2018-10-11T11:36:54.578Z,100460.48
2018-10-11T11:39:22.665Z,100462.36
2018-10-11T11:41:50.787Z,100463.55
2018-10-11T11:44:18.864Z,100464.37
2018-10-11T11:46:46.958Z,100454.69
2018-10-11T11:49:15.195Z,100456.55
2018-10-11T11:51:43.271Z,100454.39
2018-10-11T11:54:18.650Z,100447.31
2018-10-11T11:56:46.847Z,100444.14
2018-10-11T11:59:15.038Z,100444.52
2018-10-11T12:01:43.094Z,100442.50
2018-10-11T12:04:11.258Z,100443.59
2018-10-11T12:06:39.420Z,100440.58
2018-10-11T12:09:10.024Z,100444.91
2018-10-11T12:11:38.105Z,100449.05
2018-10-11T12:14:06.527Z,100452.66
2018-10-11T12:16:35.723Z,100443.16
2018-10-11T12:19:03.771Z,100438.88
2018-10-11T12:21:31.872Z,100444.70
2018-10-11T12:24:00.572Z,100445.26
2018-10-11T12:26:28.666Z,100444.99
2018-10-11T12:28:57.529Z,100437.69
2018-10-11T12:31:25.595Z,100430.08
2018-10-11T12:33:54.117Z,100430.42
2018-10-11T12:36:22.351Z,100436.73
2018-10-11T12:38:50.481Z,100445.74
2018-10-11T12:41:19.108Z,100441.74
2018-10-11T12:43:47.859Z,100445.97
2018-10-11T12:46:15.536Z,100439.17
2018-10-11T12:48:43.621Z,100428.58
2018-10-11T12:51:11.700Z,100426.39
2018-10-11T12:53:42.244Z,100435.44
2018-10-11T12:56:08.700Z,100435.52
2018-10-11T12:58:36.908Z,100435.84
2018-10-11T13:01:05.228Z,100442.70
2018-10-11T13:03:33.304Z,100446.80
2018-10-11T13:06:04.980Z,100445.89
2018-10-11T13:08:34.951Z,100445.34
2018-10-11T13:11:05.658Z,100455.95
2018-10-11T13:13:35.068Z,100443.98
2018-10-11T13:16:05.800Z,100452.75
2018-10-11T13:18:36.066Z,100462.82
2018-10-11T13:21:06.466Z,100455.20
2018-10-11T13:23:37.609Z,100456.05
2018-10-11T13:26:07.364Z,100459.48
2018-10-11T13:28:36.515Z,100457.30
2018-10-11T13:31:06.432Z,100462.78
2018-10-11T13:33:34.970Z,100463.05
2018-10-11T13:36:05.242Z,100455.19
2018-10-11T13:38:36.790Z,100454.95
2018-10-11T13:41:07.456Z,100449.55
2018-10-11T13:43:43.015Z,100460.55
2018-10-11T13:46:14.750Z,100459.51
2018-10-11T13:48:50.595Z,100464.48
2018-10-11T13:51:20.520Z,100463.41
2018-10-11T13:53:55.479Z,100462.62
2018-10-11T13:56:20.390Z,100461.03
2018-10-11T13:58:48.929Z,100461.56
2018-10-11T14:01:18.496Z,100455.03
2018-10-11T14:03:48.225Z,100456.06
2018-10-11T14:06:17.479Z,100455.50
2018-10-11T14:08:46.852Z,100456.34
2018-10-11T14:11:15.917Z,100457.96
2018-10-11T14:13:45.606Z,100454.67
2018-10-11T14:16:17.704Z,100454.96
2018-10-11T14:18:49.278Z,100453.86
2018-10-11T14:21:18.536Z,100453.58
2018-10-11T14:23:47.865Z,100458.23
2018-10-11T14:26:20.912Z,100459.88
2018-10-11T14:28:49.920Z,100455.52
2018-10-11T14:31:19.660Z,100449.50
2018-10-11T14:33:51.272Z,100452.03
2018-10-11T14:36:20.956Z,100444.95
2018-10-11T14:38:50.863Z,100436.47
2018-10-11T14:41:19.609Z,100443.31
2018-10-11T14:43:48.994Z,100444.39
2018-10-11T14:46:17.716Z,100444.41
2018-10-11T14:48:47.773Z,100442.47
2018-10-11T14:51:20.530Z,100442.20
2018-10-11T14:53:51.660Z,100440.58
2018-10-11T14:56:27.307Z,100443.59
2018-10-11T14:58:55.389Z,100426.38
2018-10-11T15:01:23.489Z,100435.92
2018-10-11T15:03:51.568Z,100440.01
2018-10-11T15:06:19.680Z,100435.66
2018-10-11T15:08:47.783Z,100435.94
2018-10-11T15:11:15.916Z,100428.28
2018-10-11T15:13:44.029Z,100436.75
2018-10-11T15:16:12.092Z,100437.86
2018-10-11T15:18:40.204Z,100432.93
2018-10-11T15:21:09.072Z,100432.66
2018-10-11T15:23:37.152Z,100439.75
2018-10-11T15:26:05.401Z,100437.57
2018-10-11T15:28:33.632Z,100432.34
2018-10-11T15:31:01.693Z,100416.55
2018-10-11T15:33:29.828Z,100420.64
2018-10-11T15:35:57.971Z,100418.19
2018-10-11T15:38:26.059Z,100426.62
2018-10-11T15:40:54.147Z,100423.58
2018-10-11T15:43:22.221Z,100409.70
2018-10-11T15:45:50.270Z,100424.45
2018-10-11T15:48:18.377Z,100432.34
2018-10-11T15:50:46.464Z,100443.41
2018-10-11T15:53:15.021Z,100449.94
2018-10-11T15:55:43.332Z,100443.30
2018-10-11T15:58:11.657Z,100453.35
2018-10-11T16:00:39.880Z,100459.20
2018-10-11T16:03:07.999Z,100457.28
2018-10-11T16:05:36.202Z,100463.24
2018-10-11T16:08:04.316Z,100460.21
2018-10-11T16:10:32.516Z,100461.97
2018-10-11T16:13:00.664Z,100464.11
2018-10-11T16:15:28.938Z,100459.12
2018-10-11T16:17:57.068Z,100454.70
2018-10-11T16:20:25.163Z,100457.60
2018-10-11T16:22:53.330Z,100460.80
2018-10-11T16:25:21.500Z,100466.14
2018-10-11T16:27:49.858Z,100471.72
2018-10-11T16:30:18.099Z,100464.89
2018-10-11T16:32:46.368Z,100465.72
2018-10-11T16:35:14.637Z,100464.33
2018-10-11T16:37:43.136Z,100462.83
2018-10-11T16:40:11.305Z,100461.97
2018-10-11T16:42:39.430Z,100465.70
2018-10-11T16:45:07.779Z,100463.98
2018-10-11T16:47:35.926Z,100466.92
2018-10-11T16:50:04.156Z,100462.12
2018-10-11T16:52:32.257Z,100462.92
2018-10-11T16:55:00.442Z,100469.40
2018-10-11T16:57:29.338Z,100483.59
2018-10-11T16:59:57.476Z,100492.98
2018-10-11T17:02:25.586Z,100483.56
2018-10-11T17:04:53.752Z,100487.61
2018-10-11T17:07:21.880Z,100492.77
2018-10-11T17:09:50.093Z,100490.32
2018-10-11T17:12:18.124Z,100488.97
2018-10-11T17:14:46.274Z,100488.45
2018-10-11T17:17:15.327Z,100492.03
2018-10-11T17:19:43.486Z,100495.13
2018-10-11T17:22:11.721Z,100512.66
2018-10-11T17:24:39.787Z,100517.39
2018-10-11T17:27:07.940Z,100522.38
2018-10-11T17:29:36.063Z,100529.95
2018-10-11T17:32:04.177Z,100524.91
2018-10-11T17:34:32.312Z,100533.80
2018-10-11T17:37:00.421Z,100537.50
2018-10-11T17:39:28.613Z,100539.41
2018-10-11T17:41:56.750Z,100544.73
2018-10-11T17:44:24.882Z,100546.34
2018-10-11T17:46:59.780Z,100544.52
2018-10-11T17:49:28.359Z,100547.98
2018-10-11T17:52:05.825Z,100543.44
2018-10-11T17:54:35.599Z,100556.15
2018-10-11T17:57:14.400Z,100560.02
2018-10-11T17:59:44.614Z,100553.58
2018-10-11T18:02:13.553Z,100555.91
2018-10-11T18:04:42.959Z,100552.24
2018-10-11T18:07:11.958Z,100549.95
2018-10-11T18:09:40.433Z,100558.99
2018-10-11T18:12:15.609Z,100549.32
2018-10-11T18:14:44.264Z,100555.30
2018-10-11T18:17:13.745Z,100550.09
2018-10-11T18:19:43.284Z,100553.63
2018-10-11T18:22:13.867Z,100549.43
2018-10-11T18:24:43.866Z,100554.66
2018-10-11T18:27:12.922Z,100554.16
2018-10-11T18:29:42.770Z,100550.54
2018-10-11T18:32:12.740Z,100554.95
2018-10-11T18:34:43.339Z,100552.48
2018-10-11T18:37:14.367Z,100555.05
2018-10-11T18:39:43.770Z,100555.95
2018-10-11T18:42:12.836Z,100556.39
2018-10-11T18:44:45.647Z,100555.34
2018-10-11T18:47:14.585Z,100559.56
2018-10-11T18:49:43.123Z,100565.59
2018-10-11T18:52:15.188Z,100565.03
2018-10-11T18:54:49.294Z,100573.95
2018-10-11T18:57:18.695Z,100568.59
2018-10-11T18:59:49.493Z,100574.78
2018-10-11T19:02:19.845Z,100569.95
2018-10-11T19:04:50.134Z,100561.28
2018-10-11T19:07:19.481Z,100573.58
2018-10-11T19:09:48.153Z,100574.30
2018-10-11T19:12:21.874Z,100573.38
2018-10-11T19:14:51.312Z,100576.46
2018-10-11T19:17:19.958Z,100570.73
2018-10-11T19:22:45.280Z,100569.95
2018-10-11T19:25:17.041Z,100569.33
2018-10-11T19:27:55.320Z,100582.36
2018-10-11T19:30:26.951Z,100574.65
2018-10-11T19:32:56.062Z,100574.65
2018-10-11T19:35:25.057Z,100576.55
2018-10-11T19:38:01.459Z,100576.24
2018-10-11T19:40:31.930Z,100576.55
2018-10-11T19:43:00.858Z,100579.87
2018-10-11T19:45:30.388Z,100572.70
2018-10-11T19:48:04.239Z,100576.94
2018-10-11T19:50:35.638Z,100571.95
2018-10-11T19:53:09.460Z,100568.63
2018-10-11T19:55:38.907Z,100575.21
2018-10-11T19:58:09.593Z,100576.15
2018-10-11T20:00:41.895Z,100580.86
2018-10-11T20:03:11.301Z,100579.96
2018-10-11T20:05:41.335Z,100574.42
2018-10-11T20:10:46.858Z,100578.60
2018-10-11T20:13:16.855Z,100585.06
2018-10-11T20:15:48.579Z,100582.59
2018-10-11T20:18:18.792Z,100577.05
2018-10-11T20:23:06.054Z,100581.11
2018-10-11T20:25:39.056Z,100585.41
2018-10-11T20:28:10.177Z,100591.33
2018-10-11T20:30:42.041Z,100597.36
2018-10-11T20:36:28.776Z,100610.70
2018-10-11T20:38:58.966Z,100606.31
2018-10-11T20:41:27.634Z,100611.49
2018-10-11T20:43:56.454Z,100619.58
2018-10-11T20:51:18.223Z,100624.75
2018-10-11T20:54:00.047Z,100627.08
2018-10-11T21:00:30.177Z,100634.16
2018-10-11T21:03:06.536Z,100634.34
2018-10-11T21:05:36.803Z,100642.71
2018-10-11T21:08:09.756Z,100642.56
2018-10-11T21:10:39.396Z,100646.33
2018-10-11T21:13:11.230Z,100643.03
2018-10-11T21:15:40.506Z,100646.93
2018-10-11T21:18:08.808Z,100647.02
2018-10-11T21:20:38.203Z,100645.58
2018-10-11T21:23:06.908Z,100649.02
2018-10-11T21:25:35.457Z,100647.45
2018-10-11T21:28:05.225Z,100644.02
2018-10-11T21:30:33.571Z,100641.80
2018-10-11T21:33:04.482Z,100648.16
2018-10-11T21:35:33.230Z,100648.61
2018-10-11T21:38:02.698Z,100645.32
2018-10-11T21:40:32.267Z,100644.16
2018-10-11T21:43:03.228Z,100634.12
2018-10-11T21:45:33.228Z,100638.36
2018-10-11T21:48:05.966Z,100634.63
2018-10-11T21:50:38.055Z,100641.23
2018-10-11T21:53:22.955Z,100637.00
2018-10-11T21:55:53.264Z,100635.38
2018-10-11T21:58:22.280Z,100643.59
2018-10-11T22:00:56.927Z,100648.02
2018-10-11T22:03:25.379Z,100650.12
2018-10-11T22:05:58.152Z,100654.25
2018-10-11T22:08:31.137Z,100654.09
2018-10-11T22:11:01.368Z,100647.23
2018-10-11T22:13:31.605Z,100641.20
2018-10-11T22:16:02.368Z,100650.69
2018-10-11T22:18:31.375Z,100646.17
2018-10-11T22:21:00.385Z,100651.98
2018-10-11T22:23:28.928Z,100646.00
2018-10-11T22:25:59.832Z,100651.16
2018-10-11T22:28:28.814Z,100646.49
2018-10-11T22:31:02.994Z,100647.14
2018-10-11T22:33:31.381Z,100644.45
2018-10-11T22:36:01.452Z,100639.92
2018-10-11T22:38:34.906Z,100639.06
2018-10-11T22:41:06.291Z,100648.39
2018-10-11T22:43:37.443Z,100646.08
2018-10-11T22:46:06.514Z,100641.92
2018-10-11T22:48:35.525Z,100643.14
2018-10-11T22:51:05.091Z,100649.26
2018-10-11T22:53:40.006Z,100660.70
2018-10-11T22:56:10.074Z,100665.16
2018-10-11T22:58:40.565Z,100674.10
2018-10-11T23:01:09.841Z,100673.69
2018-10-11T23:03:38.557Z,100675.65
2018-10-11T23:06:07.562Z,100688.81
2018-10-11T23:08:36.747Z,100687.14
2018-10-11T23:11:06.245Z,100687.58
2018-10-11T23:13:40.162Z,100682.09
2018-10-11T23:16:09.421Z,100683.10
2018-10-11T23:18:38.922Z,100686.62
2018-10-11T23:21:07.531Z,100692.41
2018-10-11T23:23:39.254Z,100692.30
2018-10-11T23:26:11.477Z,100698.63
2018-10-11T23:28:42.061Z,100701.81
2018-10-11T23:31:12.141Z,100705.67
2018-10-11T23:33:40.667Z,100699.16
2018-10-11T23:36:16.831Z,100695.20
2018-10-11T23:38:45.165Z,100704.65
2018-10-11T23:41:15.263Z,100713.10
2018-10-11T23:43:43.469Z,100717.57
2018-10-11T23:46:12.866Z,100728.30
2018-10-11T23:48:41.938Z,100742.63
2018-10-11T23:51:10.024Z,100748.96
2018-10-11T23:53:38.122Z,100751.84
2018-10-11T23:56:06.779Z,100757.05
2018-10-11T23:58:34.884Z,100766.46
